Time;durP1;ratioP1;P1;durP2;ratioP2;P2;SDS_P1;SDS_P2;PMS_P1;PMS_P2;Temp;Humidity;BMP_temperature;BMP_pressure;BME280_temperature;BME280_humidity;BME280_pressure;Samples;Min_cycle;Max_cycle;Signal;HPM_P1;HPM_P2
2023/03/25 00:02:00;;;;;;;11.10;6.80;;;;;;;11.11;89.81;96969.13;109042;1254;60471;-78
2023/03/25 00:04:26;;;;;;;12.20;6.70;;;;;;;11.01;93.46;96956.62;109094;1254;60009;-79
2023/03/25 00:06:55;;;;;;;8.60;5.30;;;;;;;10.99;88.84;96956.37;109099;1254;60035;-80
2023/03/25 00:09:22;;;;;;;8.40;6.30;;;;;;;10.87;94.05;96946.23;109062;1254;70832;-77
2023/03/25 00:11:49;;;;;;;9.10;7.80;;;;;;;10.83;95.18;96941.61;108941;1254;71361;-80
2023/03/25 00:14:16;;;;;;;10.90;8.80;;;;;;;10.74;97.83;96942.63;108985;1254;60473;-77
2023/03/25 00:16:47;;;;;;;9.80;6.10;;;;;;;10.66;98.92;96943.30;109066;1254;60279;-79
2023/03/25 00:19:17;;;;;;;13.00;6.20;;;;;;;10.63;97.20;96943.59;108913;1256;75795;-79
2023/03/25 00:21:43;;;;;;;12.20;6.80;;;;;;;10.58;97.67;96944.02;108905;1255;70965;-79
2023/03/25 00:24:16;;;;;;;10.60;6.30;;;;;;;10.59;93.79;96941.16;108888;1257;59954;-77
2023/03/25 00:26:45;;;;;;;9.20;5.90;;;;;;;10.59;92.80;96940.63;109005;1258;59860;-79
2023/03/25 00:29:12;;;;;;;7.10;5.00;;;;;;;10.65;92.61;96933.57;108972;1257;60343;-79
2023/03/25 00:31:39;;;;;;;11.30;7.30;;;;;;;10.74;92.07;96941.48;108986;1257;74149;-77
2023/03/25 00:34:05;;;;;;;15.20;8.70;;;;;;;10.81;93.03;96936.18;109087;1256;71585;-79
2023/03/25 00:36:32;;;;;;;13.70;8.20;;;;;;;10.84;92.73;96936.50;109076;1256;72772;-78
2023/03/25 00:38:58;;;;;;;13.40;7.70;;;;;;;10.83;95.64;96925.83;108907;1256;60572;-77
2023/03/25 00:41:25;;;;;;;12.90;7.40;;;;;;;10.87;93.67;96932.79;108866;1257;59885;-79
2023/03/25 00:43:56;;;;;;;12.80;8.20;;;;;;;10.88;92.92;96926.17;108900;1255;75425;-77
2023/03/25 00:46:25;;;;;;;15.00;8.50;;;;;;;10.89;92.71;96921.73;109085;1257;70488;-79
2023/03/25 00:48:52;;;;;;;11.90;8.00;;;;;;;10.86;94.19;96916.23;109083;1256;71397;-79
2023/03/25 00:51:20;;;;;;;11.60;7.60;;;;;;;10.82;93.37;96915.05;109095;1257;60555;-77
2023/03/25 00:53:51;;;;;;;28.60;9.20;;;;;;;10.81;93.30;96913.65;109084;1257;59882;-78
2023/03/25 00:56:18;;;;;;;12.20;8.00;;;;;;;10.74;95.27;96914.86;109014;1256;74957;-79
2023/03/25 00:58:44;;;;;;;11.90;7.20;;;;;;;10.74;94.64;96922.04;109260;1254;70263;-77
2023/03/25 01:01:12;;;;;;;10.70;6.60;;;;;;;10.72;95.63;96922.86;109280;1254;59727;-77
2023/03/25 01:03:39;;;;;;;9.20;5.60;;;;;;;10.70;95.31;96917.89;109070;1254;59794;-77
2023/03/25 01:06:10;;;;;;;12.80;9.10;;;;;;;10.60;98.46;96921.08;109292;1254;59906;-79
2023/03/25 01:08:37;;;;;;;12.60;8.50;;;;;;;10.61;95.28;96928.09;109300;1254;74121;-79
2023/03/25 01:11:05;;;;;;;15.80;14.10;;;;;;;10.64;95.30;96925.95;109277;1254;72325;-79
2023/03/25 01:13:31;;;;;;;14.20;10.70;;;;;;;10.62;98.50;96927.84;109283;1254;72236;-79
2023/03/25 01:15:57;;;;;;;13.10;9.40;;;;;;;10.61;97.94;96930.45;109006;1254;59980;-79
2023/03/25 01:18:24;;;;;;;11.40;7.60;;;;;;;10.63;95.84;96932.58;109094;1254;59726;-79
2023/03/25 01:20:50;;;;;;;8.60;6.50;;;;;;;10.65;95.46;96927.60;108899;1257;60509;-79
2023/03/25 01:23:17;;;;;;;10.70;6.90;;;;;;;10.62;99.01;96920.48;108898;1256;59905;-79
2023/03/25 01:25:43;;;;;;;10.50;6.50;;;;;;;10.57;99.99;96917.98;108940;1256;60270;-78
2023/03/25 01:28:09;;;;;;;13.20;6.70;;;;;;;10.56;98.95;96908.41;109080;1255;60080;-78
2023/03/25 01:30:36;;;;;;;9.60;6.50;;;;;;;10.56;96.91;96913.56;109113;1256;59753;-79
2023/03/25 01:33:02;;;;;;;15.00;9.60;;;;;;;10.59;95.99;96913.67;109121;1257;59851;-77
2023/03/25 01:35:29;;;;;;;16.90;10.40;;;;;;;10.62;95.43;96914.08;109134;1255;59740;-79
2023/03/25 01:37:55;;;;;;;19.00;12.30;;;;;;;10.65;95.55;96920.27;109082;1255;60086;-80
2023/03/25 01:40:25;;;;;;;16.30;12.80;;;;;;;10.67;98.59;96915.57;108918;1255;60032;-77
2023/03/25 01:42:51;;;;;;;20.40;13.30;;;;;;;10.65;100.00;96914.11;108897;1255;59884;-80
2023/03/25 01:45:29;;;;;;;18.20;12.70;;;;;;;10.65;99.36;96917.41;108929;1256;75239;-77
2023/03/25 01:48:25;;;;;;;22.40;16.40;;;;;;;10.64;98.13;96910.73;108788;1255;150952;-78
2023/03/25 01:50:57;;;;;;;14.60;9.60;;;;;;;10.59;100.00;96905.21;108882;1255;71621;-79
2023/03/25 01:53:26;;;;;;;15.00;10.10;;;;;;;10.57;99.69;96908.90;109095;1255;60634;-77
2023/03/25 01:55:53;;;;;;;;;;;;;;;10.56;98.86;96911.79;109118;1255;60302;-79
2023/03/25 01:58:20;;;;;;;12.30;8.20;;;;;;;10.58;98.57;96913.73;109283;1254;75012;-79
2023/03/25 02:00:46;;;;;;;11.30;7.80;;;;;;;10.61;98.54;96911.46;109271;1254;70198;-77
2023/03/25 02:03:13;;;;;;;10.20;6.00;;;;;;;10.64;98.40;96910.90;109090;1254;59951;-77
2023/03/25 02:06:02;;;;;;;9.70;6.50;;;;;;;10.68;97.92;96912.52;109052;1254;59891;-79
2023/03/25 02:08:31;;;;;;;12.10;7.60;;;;;;;10.73;97.35;96906.77;109131;1254;60180;-79
2023/03/25 02:10:57;;;;;;;;;;;;;;;10.81;98.27;96901.27;109111;1254;75364;-79
2023/03/25 02:13:24;;;;;;;12.10;8.80;;;;;;;10.86;97.98;96901.23;109280;1254;59792;-77
2023/03/25 02:16:07;;;;;;;14.40;8.50;;;;;;;10.92;97.74;96900.17;109261;1254;60033;-77
2023/03/25 02:19:07;;;;;;;14.50;8.90;;;;;;;10.96;97.54;96904.48;109074;1255;59977;-79
2023/03/25 02:21:34;;;;;;;14.20;7.60;;;;;;;10.98;97.65;96908.00;109061;1255;59835;-77
2023/03/25 02:24:28;;;;;;;11.40;8.00;;;;;;;10.96;97.37;96909.75;109120;1256;59861;-77
2023/03/25 02:27:26;;;;;;;10.30;7.30;;;;;;;10.99;97.66;96910.48;108910;1255;72265;-78
2023/03/25 02:30:11;;;;;;;11.10;7.30;;;;;;;10.97;97.47;96906.23;108887;1256;72817;-77
2023/03/25 02:32:56;;;;;;;12.00;7.30;;;;;;;10.94;97.44;96908.71;108912;1255;59848;-77
2023/03/25 02:35:51;;;;;;;10.50;7.90;;;;;;;10.96;97.93;96912.23;108904;1255;60082;-79
2023/03/25 02:38:47;;;;;;;8.60;6.30;;;;;;;11.02;98.26;96912.04;108786;1256;75618;-77
2023/03/25 02:41:28;;;;;;;14.90;8.80;;;;;;;11.08;98.13;96908.85;108881;1255;72083;-77
2023/03/25 02:43:58;;;;;;;13.20;9.10;;;;;;;11.13;97.95;96909.43;108890;1255;71817;-79
2023/03/25 02:46:25;;;;;;;13.30;8.50;;;;;;;11.16;97.73;96914.61;108848;1256;60200;-77
2023/03/25 02:49:00;;;;;;;11.80;6.90;;;;;;;11.17;97.18;96919.69;108933;1255;60191;-79
2023/03/25 02:51:29;;;;;;;15.10;9.00;;;;;;;11.19;97.31;96920.01;108784;1256;73999;-77
2023/03/25 02:53:55;;;;;;;;;;;;;;;11.20;97.34;96917.84;109117;1256;70914;-77
2023/03/25 02:56:24;;;;;;;10.70;5.50;;;;;;;11.20;97.36;96916.38;109108;1254;71902;-77
2023/03/25 02:58:54;;;;;;;12.10;7.50;;;;;;;11.22;96.82;96919.79;109101;1254;59705;-80
2023/03/25 03:01:25;;;;;;;14.80;8.10;;;;;;;11.23;96.78;96920.18;109132;1254;60197;-77
2023/03/25 03:03:53;;;;;;;10.80;7.60;;;;;;;11.26;96.95;96918.59;109284;1254;74463;-79
2023/03/25 03:06:19;;;;;;;13.60;7.00;;;;;;;11.21;99.99;96919.85;109200;1254;70585;-77
2023/03/25 03:08:48;;;;;;;13.30;8.40;;;;;;;11.17;99.10;96925.05;109180;1254;59979;-77
2023/03/25 03:11:30;;;;;;;12.50;7.70;;;;;;;11.11;99.65;96924.77;109304;1254;59957;-79
2023/03/25 03:14:26;;;;;;;11.10;7.40;;;;;;;11.09;98.97;96923.94;109280;1254;60348;-79
2023/03/25 03:17:03;;;;;;;7.90;4.50;;;;;;;11.09;98.26;96920.82;109197;1254;75244;-79
2023/03/25 03:20:16;;;;;;;7.00;5.40;;;;;;;11.08;97.43;96919.98;109029;1256;72309;-80
2023/03/25 03:23:03;;;;;;;10.10;6.10;;;;;;;11.07;97.03;96922.12;109045;1256;73823;-79
2023/03/25 03:25:31;;;;;;;9.40;5.40;;;;;;;11.08;96.88;96923.59;109019;1255;60402;-77
2023/03/25 03:28:01;;;;;;;8.40;5.20;;;;;;;11.09;96.84;96927.09;108867;1256;60035;-77
2023/03/25 03:30:37;;;;;;;11.80;7.50;;;;;;;11.08;97.34;96929.73;108840;1257;77345;-78
2023/03/25 03:33:27;;;;;;;11.30;8.20;;;;;;;11.07;97.01;96931.27;109155;1255;70205;-77
2023/03/25 03:36:03;;;;;;;14.00;8.30;;;;;;;11.05;97.38;96931.96;109082;1256;71980;-79
2023/03/25 03:38:34;;;;;;;11.50;8.60;;;;;;;10.98;97.39;96931.20;109044;1256;59838;-77
2023/03/25 03:41:06;;;;;;;15.70;9.80;;;;;;;10.95;98.51;96932.11;109098;1256;59736;-77
2023/03/25 03:43:42;;;;;;;13.60;9.00;;;;;;;10.90;99.04;96936.92;109053;1256;75328;-79
2023/03/25 03:46:13;;;;;;;11.30;8.90;;;;;;;10.91;98.24;96943.40;109093;1254;70993;-78
2023/03/25 03:48:41;;;;;;;22.80;11.20;;;;;;;10.92;98.01;96945.98;108977;1254;72087;-79
2023/03/25 03:51:38;;;;;;;15.50;10.20;;;;;;;10.95;98.56;96948.23;109025;1254;59736;-77
2023/03/25 03:54:07;;;;;;;10.50;8.00;;;;;;;10.94;98.92;96958.31;109100;1256;60064;-77
2023/03/25 03:56:40;;;;;;;11.70;8.10;;;;;;;10.90;99.10;96958.13;108987;1256;74285;-79
2023/03/25 03:59:14;;;;;;;10.70;8.10;;;;;;;10.89;98.91;96960.42;109091;1256;71324;-77
2023/03/25 04:01:44;;;;;;;10.00;7.20;;;;;;;10.89;98.89;96963.90;109224;1254;72796;-79
2023/03/25 04:04:19;;;;;;;4.20;2.90;;;;;;;10.86;100.00;96969.21;109293;1256;59724;-79
2023/03/25 04:07:27;;;;;;;4.60;3.40;;;;;;;10.86;99.65;96975.34;109102;1254;60202;-79
2023/03/25 04:10:01;;;;;;;8.10;4.00;;;;;;;10.86;100.00;96983.93;108770;1262;75507;-79
2023/03/25 04:12:31;;;;;;;5.90;4.40;;;;;;;10.78;100.00;96988.27;108664;1263;71391;-79
2023/03/25 04:15:01;;;;;;;6.40;4.20;;;;;;;10.58;99.88;96996.36;109081;1254;73543;-77
2023/03/25 04:17:34;;;;;;;6.40;4.90;;;;;;;10.44;100.00;96992.80;109319;1254;59768;-79
2023/03/25 04:20:05;;;;;;;6.80;4.80;;;;;;;10.30;100.00;96996.39;109197;1255;59851;-77
2023/03/25 04:22:32;;;;;;;8.80;6.20;;;;;;;10.27;100.00;96994.58;109117;1255;74223;-79
2023/03/25 04:24:59;;;;;;;9.10;5.60;;;;;;;10.21;100.00;96997.10;109146;1255;59690;-77
2023/03/25 04:27:28;;;;;;;10.50;6.90;;;;;;;10.10;100.00;96999.93;109120;1255;71953;-79
2023/03/25 04:29:56;;;;;;;9.60;6.50;;;;;;;10.04;100.00;97002.20;109091;1255;60638;-78
2023/03/25 04:32:23;;;;;;;9.60;6.40;;;;;;;9.94;100.00;96999.86;109130;1255;59919;-79
2023/03/25 04:34:49;;;;;;;10.60;7.60;;;;;;;9.85;100.00;97004.48;109112;1255;74270;-77
2023/03/25 04:37:15;;;;;;;7.50;5.40;;;;;;;9.83;100.00;97011.27;109051;1256;59743;-77
2023/03/25 04:39:42;;;;;;;8.60;5.40;;;;;;;9.79;100.00;97014.32;108995;1255;60609;-77
2023/03/25 04:42:12;;;;;;;11.70;7.60;;;;;;;9.73;100.00;97020.42;108915;1255;60404;-79
2023/03/25 04:44:38;;;;;;;13.10;7.90;;;;;;;9.56;100.00;97019.33;109059;1256;59731;-77
2023/03/25 04:47:06;;;;;;;9.90;5.70;;;;;;;9.49;100.00;97021.70;109121;1255;60004;-77
2023/03/25 04:49:32;;;;;;;7.90;5.30;;;;;;;9.47;100.00;97026.55;109115;1255;70531;-79
2023/03/25 04:52:01;;;;;;;6.70;4.80;;;;;;;9.48;100.00;97031.90;109058;1256;59785;-78
2023/03/25 04:54:27;;;;;;;6.50;4.80;;;;;;;9.48;100.00;97035.29;109106;1255;59950;-79
2023/03/25 04:56:54;;;;;;;7.00;4.40;;;;;;;9.48;100.00;97040.91;109207;1254;59763;-77
2023/03/25 04:59:21;;;;;;;6.00;4.70;;;;;;;9.48;100.00;97036.59;109325;1254;74659;-79
2023/03/25 05:01:48;;;;;;;6.50;5.30;;;;;;;9.46;100.00;97033.33;109184;1254;70943;-79
2023/03/25 05:04:16;;;;;;;6.10;4.30;;;;;;;9.45;100.00;97028.48;109075;1254;60276;-77
2023/03/25 05:06:44;;;;;;;9.10;5.50;;;;;;;9.46;100.00;97032.25;109134;1254;60693;-80
2023/03/25 05:09:14;;;;;;;6.20;4.90;;;;;;;9.47;100.00;97033.80;109165;1254;59819;-77
2023/03/25 05:11:41;;;;;;;7.00;4.70;;;;;;;9.48;100.00;97031.08;108954;1254;75364;-77
2023/03/25 05:14:11;;;;;;;10.30;4.80;;;;;;;9.47;100.00;97031.02;109056;1254;69583;-79
2023/03/25 05:16:38;;;;;;;8.70;5.40;;;;;;;9.50;100.00;97034.73;108905;1254;71718;-77
2023/03/25 05:19:05;;;;;;;9.00;4.90;;;;;;;9.55;100.00;97037.88;109043;1256;60316;-80
2023/03/25 05:21:34;;;;;;;9.00;6.00;;;;;;;9.60;100.00;97040.19;108956;1255;59884;-77
2023/03/25 05:24:02;;;;;;;9.60;6.80;;;;;;;9.64;100.00;97042.38;108932;1255;75365;-77
2023/03/25 05:26:33;;;;;;;13.10;7.80;;;;;;;9.68;100.00;97044.86;108922;1256;69798;-77
2023/03/25 05:29:03;;;;;;;11.80;8.00;;;;;;;9.72;100.00;97045.12;108895;1255;72548;-77
2023/03/25 05:31:29;;;;;;;16.20;8.90;;;;;;;9.71;100.00;97045.71;108899;1255;60333;-77
2023/03/25 05:33:56;;;;;;;15.60;10.50;;;;;;;9.70;100.00;97050.35;108908;1255;59970;-79
2023/03/25 05:36:23;;;;;;;17.30;11.40;;;;;;;9.72;100.00;97051.87;108885;1256;75580;-77
2023/03/25 05:38:53;;;;;;;26.00;14.40;;;;;;;9.71;100.00;97051.95;108914;1255;70880;-79
2023/03/25 05:41:21;;;;;;;17.60;9.90;;;;;;;9.70;100.00;97051.38;108910;1255;74184;-78
2023/03/25 05:43:49;;;;;;;15.30;11.20;;;;;;;9.67;100.00;97050.35;108887;1256;59899;-77
2023/03/25 05:46:16;;;;;;;13.80;9.30;;;;;;;9.64;100.00;97049.08;108800;1255;59724;-77
2023/03/25 05:48:44;;;;;;;9.10;6.80;;;;;;;9.65;100.00;97045.94;108869;1255;75318;-79
2023/03/25 05:51:12;;;;;;;12.40;8.80;;;;;;;9.62;100.00;97050.21;108918;1255;70937;-79
2023/03/25 05:53:39;;;;;;;11.70;8.60;;;;;;;9.63;100.00;97049.80;108898;1255;71576;-77
2023/03/25 05:56:05;;;;;;;9.80;6.80;;;;;;;9.58;100.00;97054.11;108961;1254;60103;-79
2023/03/25 05:58:32;;;;;;;12.60;8.00;;;;;;;9.58;100.00;97060.56;109069;1254;60279;-77
2023/03/25 06:01:01;;;;;;;12.10;8.40;;;;;;;9.57;100.00;97062.57;108980;1256;60634;-76
2023/03/25 06:03:28;;;;;;;13.30;9.20;;;;;;;9.54;100.00;97066.29;108775;1255;71307;-77
2023/03/25 06:05:55;;;;;;;11.90;7.90;;;;;;;9.54;100.00;97072.36;108901;1255;59932;-79
2023/03/25 06:08:24;;;;;;;12.90;8.90;;;;;;;9.55;100.00;97077.79;108864;1255;60405;-79
2023/03/25 06:10:57;;;;;;;15.70;10.90;;;;;;;9.57;100.00;97075.98;108909;1255;60679;-77
2023/03/25 06:13:24;;;;;;;12.00;9.90;;;;;;;9.65;100.00;97065.96;108967;1255;75344;-78
2023/03/25 06:15:55;;;;;;;13.50;10.10;;;;;;;9.71;100.00;97057.58;108914;1255;69936;-77
2023/03/25 06:18:24;;;;;;;40.90;26.90;;;;;;;9.73;100.00;97058.56;108894;1256;72661;-77
2023/03/25 06:20:52;;;;;;;27.70;19.50;;;;;;;9.73;100.00;97065.39;108774;1256;60461;-77
2023/03/25 06:23:21;;;;;;;16.00;12.10;;;;;;;9.72;100.00;97070.64;108931;1255;59773;-79
2023/03/25 06:25:50;;;;;;;12.20;9.30;;;;;;;9.72;100.00;97081.78;108913;1255;75352;-78
2023/03/25 06:28:17;;;;;;;11.80;10.30;;;;;;;9.74;100.00;97079.22;108920;1255;69548;-77
2023/03/25 06:30:45;;;;;;;13.00;10.90;;;;;;;9.74;100.00;97082.73;108919;1255;73152;-77
2023/03/25 06:33:12;;;;;;;14.00;10.50;;;;;;;9.78;100.00;97089.21;108896;1255;60475;-77
2023/03/25 06:35:41;;;;;;;14.90;11.30;;;;;;;9.86;100.00;97094.98;108927;1255;60294;-80
2023/03/25 06:38:08;;;;;;;12.30;9.70;;;;;;;9.88;100.00;97094.59;108897;1256;74208;-77
2023/03/25 06:40:36;;;;;;;11.10;8.40;;;;;;;9.90;100.00;97092.83;108797;1256;71333;-79
2023/03/25 06:43:05;;;;;;;16.70;9.70;;;;;;;9.91;100.00;97093.96;108876;1255;72091;-77
2023/03/25 06:45:32;;;;;;;;;;;;;;;9.97;100.00;97096.73;108718;1256;60016;-77
2023/03/25 06:47:59;;;;;;;12.80;9.70;;;;;;;10.02;100.00;97097.02;108796;1256;60681;-77
2023/03/25 06:50:25;;;;;;;17.80;11.60;;;;;;;10.03;100.00;97095.81;108791;1256;76003;-77
2023/03/25 06:52:52;;;;;;;17.40;12.70;;;;;;;10.07;100.00;97095.30;108791;1256;59928;-77
2023/03/25 06:55:18;;;;;;;15.60;10.10;;;;;;;10.11;100.00;97093.50;108864;1255;60176;-77
2023/03/25 06:57:45;;;;;;;54.40;30.00;;;;;;;10.17;100.00;97097.19;108846;1257;60532;-80
2023/03/25 07:00:12;;;;;;;88.10;48.20;;;;;;;10.19;100.00;97096.19;108886;1257;60511;-79
2023/03/25 07:02:38;;;;;;;43.30;27.00;;;;;;;10.23;100.00;97095.58;108832;1257;75358;-79
2023/03/25 07:05:05;;;;;;;23.80;18.80;;;;;;;10.26;100.00;97092.87;108789;1257;70797;-77
2023/03/25 07:07:32;;;;;;;22.20;16.80;;;;;;;10.35;100.00;97091.58;108867;1257;71937;-77
2023/03/25 07:09:59;;;;;;;21.30;16.40;;;;;;;10.42;100.00;97082.98;108818;1257;60191;-77
2023/03/25 07:12:25;;;;;;;25.90;19.20;;;;;;;10.47;100.00;97082.89;108866;1256;61696;-80
2023/03/25 07:14:52;;;;;;;32.80;26.40;;;;;;;10.52;100.00;97079.31;108933;1255;60691;-79
2023/03/25 07:17:19;;;;;;;32.30;27.30;;;;;;;10.66;100.00;97079.63;109018;1257;70768;-79
2023/03/25 07:19:45;;;;;;;26.60;22.30;;;;;;;10.75;100.00;97076.56;108847;1256;72365;-77
2023/03/25 07:22:12;;;;;;;18.60;15.70;;;;;;;10.86;100.00;97073.36;108879;1255;60242;-79
2023/03/25 07:24:38;;;;;;;16.90;13.10;;;;;;;10.94;100.00;97070.15;108902;1255;60343;-77
2023/03/25 07:27:04;;;;;;;12.80;11.10;;;;;;;11.09;100.00;97070.31;108905;1255;60463;-77
2023/03/25 07:29:31;;;;;;;16.50;12.20;;;;;;;11.24;100.00;97067.45;108926;1255;59895;-80
2023/03/25 07:31:57;;;;;;;13.30;9.00;;;;;;;11.43;100.00;97063.86;108881;1255;60518;-80
2023/03/25 07:34:24;;;;;;;12.80;8.90;;;;;;;11.57;100.00;97067.86;108959;1255;61369;-77
2023/03/25 07:36:50;;;;;;;9.90;6.90;;;;;;;11.75;100.00;97068.52;109016;1254;60487;-77
2023/03/25 07:39:17;;;;;;;10.90;8.10;;;;;;;11.98;100.00;97069.72;109021;1255;59897;-77
2023/03/25 07:41:46;;;;;;;8.70;6.40;;;;;;;12.15;100.00;97068.27;109020;1254;59853;-77
2023/03/25 07:44:14;;;;;;;11.60;8.20;;;;;;;12.22;100.00;97067.96;108913;1256;72908;-77
2023/03/25 07:46:40;;;;;;;9.40;6.10;;;;;;;12.22;100.00;97060.91;108936;1255;60505;-77
2023/03/25 07:49:07;;;;;;;9.60;5.40;;;;;;;12.41;100.00;97065.02;108969;1255;60432;-80
2023/03/25 07:51:33;;;;;;;8.80;5.90;;;;;;;12.78;100.00;97057.06;108890;1255;59844;-79
2023/03/25 07:54:00;;;;;;;7.10;5.00;;;;;;;13.66;100.00;97058.80;108921;1255;59844;-77
2023/03/25 07:56:26;;;;;;;8.90;5.00;;;;;;;14.41;99.92;97056.21;108955;1255;59869;-78
2023/03/25 07:58:53;;;;;;;5.70;4.30;;;;;;;15.29;98.32;97063.02;108906;1255;60351;-80
2023/03/25 08:01:19;;;;;;;7.50;4.20;;;;;;;15.88;95.35;97065.66;108907;1255;59895;-80
2023/03/25 08:03:45;;;;;;;7.20;4.00;;;;;;;16.29;91.89;97064.61;108966;1255;59976;-79
2023/03/25 08:06:12;;;;;;;9.50;5.20;;;;;;;16.96;88.56;97069.61;108928;1255;60210;-80
2023/03/25 08:08:38;;;;;;;9.80;4.80;;;;;;;17.63;85.10;97073.89;108930;1258;59960;-78
2023/03/25 08:11:05;;;;;;;6.20;3.40;;;;;;;18.01;79.85;97067.44;108905;1255;60597;-78
2023/03/25 08:13:31;;;;;;;6.50;3.40;;;;;;;18.06;80.01;97065.31;108962;1254;60449;-80
2023/03/25 08:15:58;;;;;;;9.90;3.60;;;;;;;18.90;75.47;97069.13;108975;1255;60228;-84
2023/03/25 08:18:24;;;;;;;4.70;2.70;;;;;;;19.58;73.22;97068.45;108981;1255;60414;-80
2023/03/25 08:20:51;;;;;;;7.70;3.90;;;;;;;20.57;74.56;97061.04;108786;1256;62074;-78
2023/03/25 08:23:18;;;;;;;7.00;5.00;;;;;;;21.39;72.76;97061.69;108824;1257;60688;-79
2023/03/25 08:25:48;;;;;;;6.30;4.40;;;;;;;21.62;66.90;97058.45;108866;1257;60126;-81
2023/03/25 08:28:22;;;;;;;5.20;3.30;;;;;;;21.60;64.07;97059.77;108976;1255;74559;-78
2023/03/25 08:30:54;;;;;;;9.70;5.30;;;;;;;21.56;57.12;97056.49;108905;1255;70207;-80
2023/03/25 08:33:26;;;;;;;5.80;3.80;;;;;;;21.87;56.46;97054.17;108880;1257;72988;-80
2023/03/25 08:35:52;;;;;;;6.80;4.10;;;;;;;22.65;54.87;97056.62;108881;1257;59857;-81
2023/03/25 08:38:20;;;;;;;6.20;4.40;;;;;;;23.11;48.23;97058.95;108845;1256;59898;-78
2023/03/25 08:40:47;;;;;;;5.40;3.00;;;;;;;23.62;46.27;97058.16;108916;1255;75246;-81
2023/03/25 08:43:13;;;;;;;5.60;3.20;;;;;;;23.77;44.12;97058.31;108799;1257;70617;-78
2023/03/25 08:45:39;;;;;;;7.10;3.70;;;;;;;23.51;43.47;97052.09;108865;1256;60373;-78
2023/03/25 08:48:06;;;;;;;11.10;5.50;;;;;;;22.74;43.38;97045.27;108932;1254;59926;-80
2023/03/25 08:50:32;;;;;;;13.70;8.10;;;;;;;22.77;44.19;97042.29;108909;1255;60054;-80
2023/03/25 08:52:58;;;;;;;14.40;6.70;;;;;;;22.85;42.90;97040.39;108935;1256;59949;-81
2023/03/25 08:55:25;;;;;;;4.40;2.50;;;;;;;23.04;41.77;97036.52;108946;1255;60186;-81
2023/03/25 08:57:51;;;;;;;8.40;4.90;;;;;;;22.75;40.73;97032.61;108918;1256;61429;-81
2023/03/25 09:00:22;;;;;;;6.90;3.70;;;;;;;21.55;42.67;97028.59;108916;1256;60470;-78
2023/03/25 09:02:49;;;;;;;10.60;3.80;;;;;;;20.40;43.22;97028.51;108955;1255;60322;-78
2023/03/25 09:05:17;;;;;;;5.90;2.60;;;;;;;19.26;45.33;97025.69;108959;1254;74754;-80
2023/03/25 09:07:43;;;;;;;15.30;8.30;;;;;;;18.50;46.87;97020.83;108873;1256;71119;-78
2023/03/25 09:10:11;;;;;;;15.10;7.70;;;;;;;17.74;47.29;97017.44;108900;1256;60071;-78
2023/03/25 09:12:38;;;;;;;8.50;4.70;;;;;;;17.27;48.79;97018.01;108940;1255;60427;-80
2023/03/25 09:15:06;;;;;;;5.10;3.20;;;;;;;17.12;50.28;97015.95;109001;1255;59783;-80
2023/03/25 09:17:32;;;;;;;6.10;2.50;;;;;;;17.13;50.59;97008.67;109007;1254;75421;-78
2023/03/25 09:19:58;;;;;;;7.20;2.30;;;;;;;17.24;50.87;97011.11;108929;1256;60482;-80
2023/03/25 09:22:25;;;;;;;7.80;3.30;;;;;;;17.28;51.01;97008.89;108918;1254;60098;-80
2023/03/25 09:24:52;;;;;;;6.40;2.90;;;;;;;17.25;50.96;97005.90;108979;1254;60368;-80
2023/03/25 09:27:18;;;;;;;12.30;6.20;;;;;;;17.23;50.64;97000.69;108975;1255;59791;-78
2023/03/25 09:29:45;;;;;;;7.00;3.10;;;;;;;17.24;49.49;96996.39;108910;1256;60365;-78
2023/03/25 09:32:11;;;;;;;4.50;2.90;;;;;;;17.06;49.81;96992.59;108969;1255;60323;-78
2023/03/25 09:34:38;;;;;;;6.10;2.40;;;;;;;16.96;50.58;96993.55;108948;1256;72927;-78
2023/03/25 09:37:04;;;;;;;7.00;2.40;;;;;;;16.97;50.95;96993.25;108893;1256;59977;-80
2023/03/25 09:39:31;;;;;;;7.90;2.90;;;;;;;17.04;51.15;96990.44;108971;1256;59815;-78
2023/03/25 09:42:16;;;;;;;8.90;3.60;;;;;;;17.07;51.20;96991.22;108897;1255;59947;-80
2023/03/25 09:45:09;;;;;;;8.80;3.40;;;;;;;17.07;50.87;96984.73;108931;1256;70008;-78
2023/03/25 09:47:36;;;;;;;9.80;3.60;;;;;;;16.87;49.78;96982.42;108893;1256;72685;-80
2023/03/25 09:50:05;;;;;;;7.20;4.50;;;;;;;16.61;50.83;96974.51;108992;1254;60234;-80
2023/03/25 09:52:50;;;;;;;6.60;3.10;;;;;;;16.57;51.13;96973.17;108899;1255;59834;-78
2023/03/25 09:55:23;;;;;;;7.50;3.10;;;;;;;16.60;51.11;96973.08;108956;1256;74445;-80
2023/03/25 09:57:50;;;;;;;3.70;2.30;;;;;;;16.67;49.76;96974.15;108795;1254;71288;-80
2023/03/25 10:00:19;;;;;;;4.40;2.80;;;;;;;16.59;49.93;96968.75;108901;1256;72635;-78
2023/03/25 10:02:53;;;;;;;4.60;3.10;;;;;;;16.57;49.63;96967.17;108871;1256;61479;-81
2023/03/25 10:05:43;;;;;;;10.40;4.10;;;;;;;16.62;49.73;96968.35;108933;1255;60445;-78
2023/03/25 10:08:21;;;;;;;12.80;4.40;;;;;;;16.67;49.19;96965.62;109016;1255;75415;-81
2023/03/25 10:11:06;;;;;;;8.10;3.10;;;;;;;16.59;50.62;96963.48;108951;1256;70165;-78
2023/03/25 10:13:40;;;;;;;7.50;2.10;;;;;;;16.65;49.97;96962.98;108889;1256;72542;-78
2023/03/25 10:16:25;;;;;;;6.60;2.80;;;;;;;16.62;49.66;96958.18;108767;1255;60248;-80
2023/03/25 10:19:14;;;;;;;5.40;3.30;;;;;;;16.46;49.68;96958.94;108972;1256;60316;-80
2023/03/25 10:21:40;;;;;;;;;;;;;;;16.34;50.45;96961.00;108960;1255;73544;-80
2023/03/25 10:24:21;;;;;;;6.80;2.80;;;;;;;16.19;49.27;96958.98;108973;1255;60327;-80
2023/03/25 10:26:58;;;;;;;8.20;3.30;;;;;;;16.00;49.72;96959.12;108937;1254;70676;-80
2023/03/25 10:29:30;;;;;;;9.40;3.30;;;;;;;15.83;50.07;96955.83;108925;1256;60653;-78
2023/03/25 10:32:00;;;;;;;6.90;2.50;;;;;;;15.71;49.99;96950.17;108983;1255;59748;-79
2023/03/25 10:34:36;;;;;;;10.60;4.70;;;;;;;15.69;49.91;96938.91;109016;1254;76540;-77
2023/03/25 10:37:03;;;;;;;5.10;2.70;;;;;;;15.70;50.88;96939.23;108899;1256;69981;-80
2023/03/25 10:39:37;;;;;;;9.70;5.60;;;;;;;15.80;51.65;96936.68;108950;1255;71323;-77
2023/03/25 10:42:14;;;;;;;6.00;2.00;;;;;;;15.85;50.84;96931.05;108932;1256;60422;-80
2023/03/25 10:44:40;;;;;;;8.40;2.80;;;;;;;15.62;49.77;96932.17;108748;1257;60565;-80
2023/03/25 10:47:10;;;;;;;8.60;2.80;;;;;;;15.57;50.90;96930.33;108973;1255;60120;-78
2023/03/25 10:49:36;;;;;;;5.50;2.50;;;;;;;15.51;51.17;96925.95;108854;1256;71534;-77
2023/03/25 10:52:03;;;;;;;4.60;2.30;;;;;;;15.50;51.08;96918.89;108841;1256;60078;-80
2023/03/25 10:54:31;;;;;;;5.00;3.40;;;;;;;15.55;51.29;96917.39;108865;1255;60831;-77
2023/03/25 10:56:58;;;;;;;;;;;;;;;15.63;51.58;96918.70;108874;1255;59722;-77
2023/03/25 10:59:33;;;;;;;6.10;2.90;;;;;;;15.68;51.44;96919.59;108972;1256;75399;-80
2023/03/25 11:01:59;;;;;;;5.80;3.30;;;;;;;15.72;51.36;96918.70;109053;1254;71495;-78
2023/03/25 11:04:32;;;;;;;10.70;3.00;;;;;;;15.78;51.71;96919.14;108841;1254;59856;-78
2023/03/25 11:06:59;;;;;;;5.70;2.60;;;;;;;16.06;50.87;96909.83;108761;1255;59811;-80
2023/03/25 11:09:29;;;;;;;8.30;2.70;;;;;;;16.27;50.78;96911.80;108974;1256;60552;-78
2023/03/25 11:11:58;;;;;;;7.10;2.00;;;;;;;16.27;50.46;96910.57;108955;1254;75289;-78
2023/03/25 11:14:26;;;;;;;6.00;3.20;;;;;;;16.13;50.41;96909.10;108977;1255;72008;-80
2023/03/25 11:16:58;;;;;;;5.60;2.60;;;;;;;15.98;50.91;96908.23;108950;1258;72139;-80
2023/03/25 11:19:46;;;;;;;13.90;5.60;;;;;;;15.83;50.79;96909.30;108945;1254;60397;-78
2023/03/25 11:22:18;;;;;;;7.70;3.90;;;;;;;15.71;50.05;96917.50;108991;1255;60452;-79
2023/03/25 11:24:47;;;;;;;4.10;1.60;;;;;;;15.56;48.91;96917.73;108975;1256;75121;-80
2023/03/25 11:27:21;;;;;;;7.20;2.10;;;;;;;15.51;49.16;96912.98;108982;1256;69263;-80
2023/03/25 11:30:01;;;;;;;5.80;1.70;;;;;;;15.57;49.24;96911.62;108948;1255;72749;-80
2023/03/25 11:33:11;;;;;;;8.30;2.20;;;;;;;15.62;49.39;96907.34;108952;1256;60466;-78
2023/03/25 11:35:42;;;;;;;9.10;3.80;;;;;;;15.67;50.00;96899.91;108912;1258;60261;-79